createdAt,value
2018-07-20T00:02:05.315Z,5.90
2018-07-20T00:07:08.485Z,3.60
2018-07-20T00:12:11.698Z,5.83
2018-07-20T00:17:14.902Z,4.30
2018-07-20T00:22:18.154Z,4.03
2018-07-20T00:27:21.291Z,4.27
2018-07-20T00:32:24.512Z,3.90
2018-07-20T00:37:27.690Z,8.20
2018-07-20T00:42:31.112Z,3.50
2018-07-20T00:47:34.395Z,4.40
2018-07-20T00:52:37.601Z,4.23
2018-07-20T00:57:40.800Z,3.67
2018-07-20T01:02:43.938Z,5.73
2018-07-20T01:07:47.077Z,4.00
2018-07-20T01:12:50.972Z,3.87
2018-07-20T01:17:54.124Z,4.20
2018-07-20T01:22:57.371Z,2.80
2018-07-20T01:28:00.553Z,3.37
2018-07-20T01:33:03.755Z,2.93
2018-07-20T01:38:07.151Z,3.00
2018-07-20T01:43:10.363Z,3.07
2018-07-20T01:48:13.571Z,3.40
2018-07-20T01:53:16.748Z,3.17
2018-07-20T01:58:19.909Z,3.10
2018-07-20T02:03:23.251Z,2.87
2018-07-20T02:08:26.382Z,5.00
2018-07-20T02:13:29.931Z,2.67
2018-07-20T02:18:33.230Z,2.87
2018-07-20T02:23:36.378Z,2.40
2018-07-20T02:28:39.609Z,2.70
2018-07-20T02:33:42.846Z,2.93
2018-07-20T02:38:45.942Z,3.03
2018-07-20T02:43:49.226Z,2.60
2018-07-20T02:48:52.434Z,2.97
2018-07-20T02:53:55.616Z,2.90
2018-07-20T02:58:58.763Z,2.63
2018-07-20T03:04:02.028Z,3.33
2018-07-20T03:09:08.451Z,1.90
2018-07-20T03:14:11.708Z,2.63
2018-07-20T03:19:14.865Z,2.57
2018-07-20T03:24:18.235Z,2.37
2018-07-20T03:29:21.550Z,2.83
2018-07-20T03:34:24.803Z,3.30
2018-07-20T03:39:27.943Z,2.73
2018-07-20T03:44:31.109Z,2.17
2018-07-20T03:49:34.365Z,3.53
2018-07-20T03:54:37.603Z,3.27
2018-07-20T03:59:40.809Z,2.00
2018-07-20T04:04:43.976Z,1.93
2018-07-20T04:09:47.143Z,2.20
2018-07-20T04:14:50.499Z,2.43
2018-07-20T04:19:53.959Z,2.80
2018-07-20T04:24:57.201Z,1.97
2018-07-20T04:30:00.588Z,3.30
2018-07-20T04:35:03.804Z,1.87
2018-07-20T04:40:07.316Z,2.63
2018-07-20T04:45:10.567Z,1.67
2018-07-20T04:50:13.725Z,2.33
2018-07-20T04:55:16.939Z,1.47
2018-07-20T05:00:20.122Z,1.80
2018-07-20T05:05:23.273Z,1.93
2018-07-20T05:10:26.563Z,1.77
2018-07-20T05:15:29.837Z,2.03
2018-07-20T05:20:33.005Z,1.80
2018-07-20T05:25:36.290Z,2.50
2018-07-20T05:30:39.482Z,1.70
2018-07-20T05:35:43.078Z,1.70
2018-07-20T05:40:46.452Z,2.50
2018-07-20T05:45:49.612Z,2.73
2018-07-20T05:50:52.840Z,2.70
2018-07-20T05:55:56.115Z,1.63
2018-07-20T06:00:59.376Z,1.47
2018-07-20T06:06:02.670Z,1.93
2018-07-20T06:11:05.965Z,1.50
2018-07-20T06:16:09.890Z,1.97
2018-07-20T06:21:13.088Z,3.27
2018-07-20T06:26:17.229Z,1.30
2018-07-20T06:31:20.416Z,3.17
2018-07-20T06:36:23.590Z,1.27
2018-07-20T06:41:26.808Z,1.57
2018-07-20T06:46:30.074Z,2.30
2018-07-20T06:51:33.282Z,2.10
2018-07-20T06:56:36.628Z,2.20
2018-07-20T07:01:40.006Z,4.33
2018-07-20T07:06:43.358Z,5.73
2018-07-20T07:11:46.652Z,5.97
2018-07-20T07:16:49.846Z,7.83
2018-07-20T07:21:53.024Z,8.60
2018-07-20T07:26:56.192Z,8.50
2018-07-20T07:31:59.471Z,6.67
2018-07-20T07:37:02.984Z,8.17
2018-07-20T07:42:06.512Z,5.30
2018-07-20T07:47:10.439Z,8.97
2018-07-20T07:52:13.669Z,6.30
2018-07-20T07:57:16.999Z,5.77
2018-07-20T08:02:20.203Z,6.63
2018-07-20T08:07:23.435Z,6.77
2018-07-20T08:12:26.619Z,7.43
2018-07-20T08:17:29.995Z,5.43
2018-07-20T08:22:33.174Z,6.43
2018-07-20T08:27:37.517Z,3.93
2018-07-20T08:32:40.820Z,9.63
2018-07-20T08:37:44.199Z,4.67
2018-07-20T08:42:47.403Z,6.07
2018-07-20T08:47:51.505Z,5.97
2018-07-20T08:52:54.913Z,5.23
2018-07-20T08:57:58.235Z,5.70
2018-07-20T09:03:01.414Z,12.33
2018-07-20T09:08:04.601Z,6.70
2018-07-20T09:13:07.876Z,7.27
2018-07-20T09:18:11.188Z,6.00
2018-07-20T09:23:14.478Z,5.40
2018-07-20T09:28:18.257Z,12.07
2018-07-20T09:33:21.490Z,7.93
2018-07-20T09:38:24.918Z,5.00
2018-07-20T09:43:28.276Z,9.13
2018-07-20T09:48:31.564Z,6.30
2018-07-20T09:53:34.884Z,8.17
2018-07-20T09:58:38.268Z,8.93
2018-07-20T10:03:41.445Z,6.80
2018-07-20T10:08:44.634Z,4.10
2018-07-20T10:13:48.665Z,7.80
2018-07-20T10:18:51.983Z,5.07
2018-07-20T10:23:55.274Z,5.13
2018-07-20T10:28:58.628Z,4.50
2018-07-20T10:34:01.960Z,4.23
2018-07-20T10:39:07.200Z,3.97
2018-07-20T10:44:10.480Z,5.23
2018-07-20T10:49:13.689Z,4.73
2018-07-20T10:54:17.024Z,4.00
2018-07-20T10:59:20.207Z,13.23
2018-07-20T11:04:23.474Z,7.53
2018-07-20T11:09:26.752Z,5.13
2018-07-20T11:14:30.097Z,5.57
2018-07-20T11:19:33.532Z,12.60
2018-07-20T11:24:36.779Z,5.40
2018-07-20T11:29:40.112Z,5.30
2018-07-20T11:34:43.464Z,5.20
2018-07-20T11:39:46.737Z,4.00
2018-07-20T11:44:49.990Z,3.80
2018-07-20T11:49:53.426Z,5.00
2018-07-20T11:54:57.346Z,5.23
2018-07-20T12:00:01.097Z,5.87
2018-07-20T12:05:04.827Z,5.60
2018-07-20T12:10:08.838Z,6.03
2018-07-20T12:15:12.170Z,5.50
2018-07-20T12:20:15.534Z,5.97
2018-07-20T12:25:18.939Z,7.13
2018-07-20T12:30:22.294Z,5.37
2018-07-20T12:35:26.107Z,6.50
2018-07-20T12:40:29.516Z,7.43
2018-07-20T12:45:32.852Z,4.47
2018-07-20T12:50:37.124Z,8.20
2018-07-20T12:55:40.439Z,8.30
2018-07-20T13:00:43.757Z,6.00
2018-07-20T13:05:47.078Z,6.03
2018-07-20T13:10:50.371Z,7.03
2018-07-20T13:15:53.796Z,7.63
2018-07-20T13:20:57.001Z,7.27
2018-07-20T13:26:01.008Z,6.40
2018-07-20T13:31:04.372Z,8.10
2018-07-20T13:36:07.615Z,8.27
2018-07-20T13:41:10.923Z,7.80
2018-07-20T13:46:14.198Z,6.30
2018-07-20T13:51:17.395Z,8.93
2018-07-20T13:56:20.665Z,7.70
2018-07-20T14:01:23.927Z,8.37
2018-07-20T14:06:27.531Z,6.00
2018-07-20T14:11:30.817Z,12.63
2018-07-20T14:16:34.100Z,7.63
2018-07-20T14:21:38.139Z,8.23
2018-07-20T14:26:41.779Z,6.33
2018-07-20T14:31:45.093Z,10.43
2018-07-20T14:36:48.292Z,12.00
2018-07-20T14:41:52.333Z,6.77
2018-07-20T14:46:55.542Z,5.40
2018-07-20T14:51:59.013Z,6.90
2018-07-20T14:57:02.251Z,7.50
2018-07-20T15:02:06.338Z,8.70
2018-07-20T15:07:09.664Z,6.50
2018-07-20T15:12:12.989Z,5.87
2018-07-20T15:17:16.380Z,11.37
2018-07-20T15:22:20.251Z,7.07
2018-07-20T15:27:23.567Z,7.30
2018-07-20T15:32:26.941Z,6.37
2018-07-20T15:37:30.263Z,6.90
2018-07-20T15:42:33.541Z,8.30
2018-07-20T15:47:37.153Z,8.23
2018-07-20T15:57:44.426Z,8.00
2018-07-20T16:02:48.576Z,7.53
2018-07-20T16:07:52.132Z,9.43
2018-07-20T16:12:55.590Z,6.90
2018-07-20T16:17:58.925Z,8.30
2018-07-20T16:23:02.127Z,14.23
2018-07-20T16:28:05.696Z,6.83
2018-07-20T16:33:09.197Z,10.87
2018-07-20T16:38:12.512Z,8.00
2018-07-20T16:43:15.841Z,11.63
2018-07-20T16:48:19.017Z,9.13
2018-07-20T16:53:22.294Z,11.73
2018-07-20T16:58:25.780Z,8.80
2018-07-20T17:03:29.146Z,9.73
2018-07-20T17:08:32.416Z,11.57
2018-07-20T17:13:35.686Z,8.53
2018-07-20T17:18:38.963Z,11.50
2018-07-20T17:23:42.203Z,9.90
2018-07-20T17:28:45.618Z,14.43
2018-07-20T17:33:49.001Z,15.20
2018-07-20T17:38:52.226Z,12.73
2018-07-20T17:43:55.634Z,15.63
2018-07-20T17:48:58.982Z,11.40
2018-07-20T17:54:02.782Z,9.50
2018-07-20T17:59:05.964Z,12.20
2018-07-20T18:04:09.296Z,11.93
2018-07-20T18:09:12.538Z,9.97
2018-07-20T18:14:15.718Z,9.17
2018-07-20T18:19:19.022Z,16.27
2018-07-20T18:24:22.208Z,8.30
2018-07-20T18:29:25.611Z,8.83
2018-07-20T18:34:28.893Z,9.77
2018-07-20T18:39:32.186Z,10.27
2018-07-20T18:44:35.509Z,5.00
2018-07-20T18:49:38.748Z,7.90
2018-07-20T18:54:42.033Z,5.50
2018-07-20T18:59:45.265Z,7.30
2018-07-20T19:04:48.542Z,6.33
2018-07-20T19:09:51.695Z,7.93
2018-07-20T19:14:54.991Z,5.90
2018-07-20T19:19:58.191Z,5.97
2018-07-20T19:25:01.387Z,6.57
2018-07-20T19:30:04.631Z,6.67
2018-07-20T19:35:07.876Z,5.20
2018-07-20T19:40:12.841Z,6.27
2018-07-20T19:45:16.205Z,3.93
2018-07-20T19:50:19.496Z,7.63
2018-07-20T19:55:23.091Z,8.13
2018-07-20T20:00:26.335Z,5.13
2018-07-20T20:05:29.602Z,6.03
2018-07-20T20:10:32.871Z,4.93
2018-07-20T20:15:36.197Z,5.90
2018-07-20T20:20:39.374Z,8.87
2018-07-20T20:25:42.722Z,6.90
2018-07-20T20:30:46.232Z,8.80
2018-07-20T20:35:50.003Z,10.40
2018-07-20T20:40:53.285Z,7.40
2018-07-20T20:45:56.647Z,7.53
2018-07-20T20:50:59.849Z,10.45
2018-07-20T20:56:03.215Z,8.90
2018-07-20T21:01:06.458Z,7.40
2018-07-20T21:06:09.730Z,6.33
2018-07-20T21:11:12.955Z,5.73
2018-07-20T21:16:16.251Z,6.47
2018-07-20T21:21:19.529Z,8.63
2018-07-20T21:26:22.697Z,5.50
2018-07-20T21:31:26.142Z,6.10
2018-07-20T21:36:29.482Z,5.33
2018-07-20T21:41:32.706Z,12.70
2018-07-20T21:46:35.920Z,5.40
2018-07-20T21:51:39.317Z,4.93
2018-07-20T21:56:42.580Z,5.97
2018-07-20T22:01:45.950Z,8.07
2018-07-20T22:06:49.411Z,5.40
2018-07-20T22:11:52.662Z,4.30
2018-07-20T22:16:55.893Z,5.03
2018-07-20T22:21:59.388Z,5.10
2018-07-20T22:27:02.572Z,5.50
2018-07-20T22:32:05.856Z,7.00
2018-07-20T22:37:09.209Z,3.80
2018-07-20T22:42:12.467Z,4.20
2018-07-20T22:47:15.840Z,5.57
2018-07-20T22:52:19.135Z,4.83
2018-07-20T22:57:22.371Z,4.23
2018-07-20T23:02:25.576Z,4.90
2018-07-20T23:07:28.781Z,8.30
2018-07-20T23:12:32.015Z,3.60
2018-07-20T23:17:35.989Z,3.53
2018-07-20T23:22:39.278Z,5.87
2018-07-20T23:27:42.472Z,10.53
2018-07-20T23:32:45.679Z,2.87
2018-07-20T23:37:48.883Z,2.57
2018-07-20T23:42:52.173Z,4.03
2018-07-20T23:47:55.552Z,3.50
2018-07-20T23:52:58.960Z,12.93
2018-07-20T23:58:02.258Z,3.00
